createdAt,value
2018-05-17T00:14:03.490Z,11.13
2018-05-17T00:16:30.995Z,14.37
2018-05-17T00:18:58.529Z,13.60
2018-05-17T00:27:07.518Z,14.33
2018-05-17T00:29:35.023Z,13.63
2018-05-17T00:32:02.531Z,18.40
2018-05-17T00:34:30.041Z,11.43
2018-05-17T00:36:57.538Z,12.20
2018-05-17T00:39:25.810Z,18.43
2018-05-17T00:41:54.077Z,18.83
2018-05-17T00:44:22.346Z,12.20
2018-05-17T00:46:49.850Z,15.10
2018-05-17T00:49:17.357Z,15.03
2018-05-17T00:51:44.857Z,12.70
2018-05-17T00:54:12.362Z,12.33
2018-05-17T00:56:39.863Z,20.77
2018-05-17T00:59:08.130Z,18.07
2018-05-17T01:01:36.398Z,14.80
2018-05-17T01:04:03.900Z,20.13
2018-05-17T01:06:31.402Z,14.53
2018-05-17T01:08:58.910Z,12.27
2018-05-17T01:11:26.419Z,15.97
2018-05-17T01:17:00.997Z,15.17
2018-05-17T01:19:44.437Z,11.23
2018-05-17T01:22:29.018Z,13.33
2018-05-17T02:20:04.180Z,25.93
2018-05-17T03:22:59.330Z,26.40
2018-05-17T03:25:27.601Z,28.33
2018-05-17T03:27:55.874Z,31.00
2018-05-17T03:30:24.144Z,26.47
2018-05-17T03:32:51.650Z,29.40
2018-05-17T03:35:19.151Z,30.83
2018-05-17T03:37:46.654Z,32.10
2018-05-17T03:40:14.167Z,29.10
2018-05-17T03:42:41.679Z,29.10
2018-05-17T03:45:09.181Z,25.13
2018-05-17T03:47:36.690Z,22.17
2018-05-17T03:50:04.204Z,28.53
2018-05-17T03:52:31.716Z,23.50
2018-05-17T03:54:59.223Z,28.77
2018-05-17T03:57:26.726Z,24.13
2018-05-17T03:59:54.242Z,24.77
2018-05-17T04:02:33.437Z,33.07
2018-05-17T04:05:12.808Z,25.80
2018-05-17T04:07:41.217Z,28.57
2018-05-17T04:10:09.496Z,30.17
2018-05-17T04:12:37.777Z,25.23
2018-05-17T04:15:06.050Z,28.90
2018-05-17T04:17:34.320Z,36.97
2018-05-17T04:23:03.509Z,31.00
2018-05-17T04:25:31.018Z,29.10
2018-05-17T04:27:58.526Z,34.43
2018-05-17T04:30:26.024Z,39.80
2018-05-17T04:32:57.086Z,28.50
2018-05-17T04:35:24.603Z,28.00
2018-05-17T04:37:52.114Z,26.07
2018-05-17T04:40:19.622Z,35.13
2018-05-17T04:42:47.129Z,23.30
2018-05-17T04:45:14.629Z,32.63
2018-05-17T04:47:42.133Z,35.83
2018-05-17T04:50:09.638Z,37.40
2018-05-17T04:52:37.143Z,38.80
2018-05-17T04:55:04.645Z,37.20
2018-05-17T04:57:32.149Z,43.87
2018-05-17T05:00:00.430Z,38.67
2018-05-17T05:02:28.706Z,47.50
2018-05-17T05:04:56.981Z,31.57
2018-05-17T05:07:25.261Z,42.40
2018-05-17T05:09:53.535Z,43.10
2018-05-17T05:12:21.809Z,33.97
2018-05-17T05:24:01.398Z,40.70
2018-05-17T05:26:28.906Z,37.17
2018-05-17T05:28:56.422Z,37.77
2018-05-17T05:31:24.706Z,41.93
2018-05-17T05:33:52.977Z,36.63
2018-05-17T05:36:21.258Z,42.87
2018-05-17T05:38:49.530Z,37.77
2018-05-17T05:41:17.814Z,34.53
2018-05-17T05:43:46.100Z,37.10
2018-05-17T05:46:14.373Z,36.67
2018-05-17T05:48:42.659Z,36.00
2018-05-17T05:51:10.166Z,36.50
2018-05-17T05:53:37.680Z,44.27
2018-05-17T05:56:05.189Z,33.83
2018-05-17T05:58:32.705Z,44.17
2018-05-17T06:01:00.218Z,37.50
2018-05-17T06:03:27.732Z,41.60
2018-05-17T06:05:55.238Z,33.63
2018-05-17T06:08:22.815Z,38.73
2018-05-17T06:10:50.273Z,36.93
2018-05-17T06:13:18.552Z,35.33
2018-05-17T06:15:46.822Z,40.83
2018-05-17T06:24:00.149Z,33.27
2018-05-17T06:26:27.650Z,41.10
2018-05-17T06:28:55.157Z,30.97
2018-05-17T06:31:22.664Z,38.73
2018-05-17T06:33:50.174Z,42.57
2018-05-17T06:36:17.680Z,33.77
2018-05-17T06:38:45.184Z,41.83
2018-05-17T06:41:12.693Z,34.90
2018-05-17T06:43:40.198Z,32.53
2018-05-17T06:46:07.705Z,29.70
2018-05-17T06:48:35.229Z,42.63
2018-05-17T06:51:02.733Z,43.03
2018-05-17T06:53:30.235Z,37.73
2018-05-17T06:55:57.738Z,33.10
2018-05-17T06:58:25.239Z,34.57
2018-05-17T07:00:53.513Z,38.87
2018-05-17T07:03:21.032Z,39.90
2018-05-17T07:05:48.533Z,42.87
2018-05-17T07:08:16.801Z,33.57
2018-05-17T07:10:45.064Z,37.87
2018-05-17T07:18:58.717Z,39.70
2018-05-17T07:24:19.705Z,41.47
2018-05-17T07:26:47.211Z,35.60
2018-05-17T07:29:14.714Z,25.23
2018-05-17T07:31:42.219Z,31.03
2018-05-17T07:34:09.722Z,37.73
2018-05-17T07:36:37.997Z,31.57
2018-05-17T07:39:06.260Z,42.30
2018-05-17T07:41:33.767Z,37.07
2018-05-17T07:44:01.274Z,34.50
2018-05-17T07:46:28.777Z,36.33
2018-05-17T07:48:56.291Z,37.43
2018-05-17T07:51:23.796Z,23.53
2018-05-17T07:53:51.303Z,36.63
2018-05-17T07:56:18.807Z,38.13
2018-05-17T07:58:46.310Z,30.93
2018-05-17T08:01:13.813Z,24.77
2018-05-17T08:03:41.317Z,37.20
2018-05-17T08:06:08.820Z,32.60
2018-05-17T08:08:37.094Z,38.70
2018-05-17T08:11:05.374Z,37.00
2018-05-17T08:13:34.450Z,30.70
2018-05-17T08:16:01.946Z,27.53
2018-05-17T08:24:14.669Z,33.80
2018-05-17T08:26:42.175Z,40.00
2018-05-17T08:29:09.675Z,44.00
2018-05-17T08:31:37.182Z,39.17
2018-05-17T08:34:04.691Z,40.30
2018-05-17T08:36:32.275Z,34.77
2018-05-17T08:38:59.715Z,41.57
2018-05-17T08:41:27.219Z,35.10
2018-05-17T08:43:54.731Z,36.10
2018-05-17T08:46:22.230Z,40.87
2018-05-17T08:48:49.741Z,34.63
2018-05-17T08:51:17.248Z,35.03
2018-05-17T08:53:44.761Z,36.80
2018-05-17T08:56:12.270Z,30.13
2018-05-17T08:58:39.774Z,22.47
2018-05-17T09:01:07.268Z,27.17
2018-05-17T09:03:35.541Z,34.90
2018-05-17T09:06:03.805Z,32.57
2018-05-17T09:08:31.315Z,35.17
2018-05-17T09:10:58.821Z,29.43
2018-05-17T09:13:45.593Z,35.03
2018-05-17T09:16:13.814Z,27.70
2018-05-17T11:17:20.104Z,32.13
2018-05-17T11:19:48.493Z,28.43
2018-05-17T11:22:16.792Z,30.37
2018-05-17T12:13:20.938Z,36.37
2018-05-17T12:15:48.440Z,37.77
2018-05-17T12:21:26.330Z,30.17
2018-05-17T12:23:53.829Z,29.97
2018-05-17T12:26:21.327Z,29.17
2018-05-17T12:28:49.594Z,30.33
2018-05-17T12:31:17.858Z,35.27
2018-05-17T12:33:45.359Z,31.63
2018-05-17T12:36:12.862Z,33.07
2018-05-17T12:38:40.362Z,39.33
2018-05-17T12:41:07.879Z,35.40
2018-05-17T12:43:35.377Z,38.53
2018-05-17T12:46:03.650Z,35.83
2018-05-17T12:48:31.917Z,31.90
2018-05-17T12:51:00.195Z,31.40
2018-05-17T12:53:28.457Z,32.07
2018-05-17T12:55:56.737Z,34.57
2018-05-17T12:58:24.237Z,29.00
2018-05-17T13:00:51.747Z,27.60
2018-05-17T13:03:19.246Z,33.10
2018-05-17T13:05:46.751Z,34.57
2018-05-17T13:08:14.258Z,34.30
2018-05-17T13:10:41.774Z,29.77
2018-05-17T13:19:00.630Z,34.80
2018-05-17T13:21:42.882Z,30.47
2018-05-17T14:22:04.019Z,32.03
2018-05-17T14:24:32.289Z,26.97
2018-05-17T14:27:00.558Z,30.50
2018-05-17T14:29:28.058Z,30.90
2018-05-17T14:31:55.566Z,35.80
2018-05-17T14:34:23.075Z,29.67
2018-05-17T14:36:50.574Z,28.30
2018-05-17T14:39:18.073Z,31.80
2018-05-17T14:41:46.346Z,29.80
2018-05-17T14:44:14.623Z,29.50
2018-05-17T14:46:42.890Z,31.00
2018-05-17T14:49:10.389Z,28.60
2018-05-17T14:51:37.893Z,36.20
2018-05-17T14:54:05.394Z,29.53
2018-05-17T14:56:32.906Z,23.40
2018-05-17T14:59:00.421Z,25.57
2018-05-17T15:01:27.921Z,24.63
2018-05-17T15:03:55.421Z,28.77
2018-05-17T15:06:22.942Z,30.47
2018-05-17T15:08:50.493Z,27.53
2018-05-17T15:11:18.008Z,24.70
2018-05-17T15:16:38.534Z,37.07
2018-05-17T15:19:06.039Z,34.43
2018-05-17T15:21:39.577Z,32.67
2018-05-17T15:24:07.078Z,29.60
2018-05-17T15:26:34.583Z,26.83
2018-05-17T15:29:02.858Z,29.37
2018-05-17T15:31:31.137Z,23.20
2018-05-17T15:33:59.472Z,29.37
2018-05-17T15:36:26.943Z,26.37
2018-05-17T15:38:54.452Z,21.40
2018-05-17T15:41:21.957Z,19.70
2018-05-17T15:43:49.461Z,27.27
2018-05-17T15:46:16.975Z,23.60
2018-05-17T15:48:44.477Z,28.10
2018-05-17T15:51:11.987Z,26.00
2018-05-17T15:53:39.553Z,23.40
2018-05-17T15:56:07.022Z,25.13
2018-05-17T15:58:34.527Z,29.40
2018-05-17T16:01:02.029Z,29.20
2018-05-17T16:03:29.534Z,24.73
2018-05-17T16:05:57.037Z,27.33
2018-05-17T16:08:24.561Z,29.97
2018-05-17T16:10:52.061Z,28.17
2018-05-17T16:13:19.565Z,24.33
2018-05-17T16:15:47.837Z,24.50
2018-05-17T16:21:15.558Z,32.00
2018-05-17T16:23:43.061Z,27.67
2018-05-17T16:26:10.581Z,30.40
2018-05-17T16:28:38.097Z,26.50
2018-05-17T16:31:06.366Z,28.03
2018-05-17T16:33:34.643Z,25.53
2018-05-17T16:36:02.908Z,28.80
2018-05-17T16:38:30.418Z,28.53
2018-05-17T16:40:57.923Z,30.10
2018-05-17T16:43:25.434Z,22.77
2018-05-17T16:45:52.951Z,31.03
2018-05-17T16:48:21.315Z,28.60
2018-05-17T16:50:49.514Z,24.43
2018-05-17T16:53:17.886Z,24.93
2018-05-17T16:55:45.315Z,33.13
2018-05-17T16:58:12.820Z,26.27
2018-05-17T17:00:41.177Z,31.60
2018-05-17T17:03:08.614Z,32.70
2018-05-17T17:05:36.126Z,25.53
2018-05-17T17:08:03.638Z,35.40
2018-05-17T17:10:31.149Z,31.37
2018-05-17T17:12:58.658Z,23.10
2018-05-17T17:18:19.286Z,25.17
2018-05-17T17:20:46.798Z,21.57
2018-05-17T17:23:14.310Z,30.73
2018-05-17T17:25:42.583Z,29.20
2018-05-17T17:28:10.091Z,26.40
2018-05-17T17:30:37.637Z,34.13
2018-05-17T17:33:05.150Z,25.13
2018-05-17T17:35:32.654Z,30.43
2018-05-17T17:38:00.162Z,29.27
2018-05-17T17:40:33.338Z,31.10
2018-05-17T17:43:00.878Z,25.60
2018-05-17T17:45:28.390Z,29.47
2018-05-17T17:47:56.667Z,25.57
2018-05-17T17:50:24.173Z,23.53
2018-05-17T17:52:51.682Z,31.40
2018-05-17T17:55:19.228Z,31.87
2018-05-17T17:57:46.709Z,29.40
2018-05-17T18:00:14.984Z,22.00
2018-05-17T18:02:43.265Z,21.73
2018-05-17T18:05:11.627Z,30.70
2018-05-17T18:07:39.105Z,24.90
2018-05-17T18:10:07.388Z,27.13
2018-05-17T18:12:34.904Z,33.80
2018-05-17T18:18:01.375Z,28.47
2018-05-17T18:20:34.865Z,24.80
2018-05-17T18:25:55.117Z,25.73
2018-05-17T18:28:23.381Z,25.97
2018-05-17T18:30:51.650Z,22.47
2018-05-17T18:33:19.163Z,26.10
2018-05-17T18:35:46.667Z,25.83
2018-05-17T18:38:14.172Z,23.53
2018-05-17T18:40:41.679Z,29.63
2018-05-17T18:43:09.193Z,25.47
2018-05-17T18:45:36.718Z,22.23
2018-05-17T18:48:04.997Z,21.67
2018-05-17T18:50:33.266Z,25.83
2018-05-17T18:53:01.535Z,25.37
2018-05-17T18:55:29.824Z,32.53
2018-05-17T18:57:58.093Z,24.90
2018-05-17T19:00:26.365Z,28.93
2018-05-17T19:02:53.869Z,24.37
2018-05-17T19:05:21.371Z,28.97
2018-05-17T19:07:48.870Z,29.47
2018-05-17T19:10:17.177Z,27.67
2018-05-17T19:12:44.690Z,33.07
2018-05-17T19:15:12.962Z,34.53
2018-05-17T19:17:41.197Z,37.83
2018-05-17T19:20:08.736Z,31.57
2018-05-17T19:22:48.771Z,29.63
2018-05-17T19:25:16.312Z,23.73
2018-05-17T19:27:44.587Z,29.60
2018-05-17T19:30:12.882Z,35.93
2018-05-17T19:32:40.385Z,29.90
2018-05-17T19:35:07.886Z,35.53
2018-05-17T19:37:36.157Z,26.90
2018-05-17T19:40:04.430Z,25.53
2018-05-17T19:42:31.938Z,27.77
2018-05-17T19:44:59.457Z,23.83
2018-05-17T19:47:27.729Z,37.00
2018-05-17T19:49:55.227Z,25.40
2018-05-17T19:52:22.817Z,23.13
2018-05-17T19:54:51.031Z,33.67
2018-05-17T19:57:19.298Z,24.07
2018-05-17T19:59:47.574Z,28.33
2018-05-17T20:02:15.088Z,21.07
2018-05-17T20:04:42.598Z,28.07
2018-05-17T20:07:10.867Z,23.47
2018-05-17T20:09:39.193Z,34.50
2018-05-17T20:12:06.693Z,25.40
2018-05-17T20:14:36.402Z,25.40
2018-05-17T20:17:03.966Z,26.50
2018-05-17T20:19:31.626Z,32.37
2018-05-17T20:21:59.150Z,25.70
2018-05-17T20:24:26.679Z,22.10
2018-05-17T20:26:54.967Z,32.17
2018-05-17T20:29:22.573Z,20.97
2018-05-17T20:31:50.798Z,24.57
2018-05-17T20:34:18.314Z,25.90
2018-05-17T20:36:45.908Z,25.70
2018-05-17T20:39:13.359Z,19.10
2018-05-17T20:41:41.655Z,26.70
2018-05-17T20:44:09.161Z,27.73
2018-05-17T20:46:37.493Z,19.00
2018-05-17T20:49:05.078Z,23.97
2018-05-17T20:51:32.589Z,24.83
2018-05-17T20:54:00.899Z,21.77
2018-05-17T20:56:28.442Z,25.13
2018-05-17T20:58:56.716Z,22.10
2018-05-17T21:01:24.993Z,21.90
2018-05-17T21:03:53.435Z,31.53
2018-05-17T21:06:20.982Z,28.87
2018-05-17T21:08:48.546Z,26.37
2018-05-17T21:11:16.046Z,24.53
2018-05-17T21:13:44.361Z,25.90
2018-05-17T21:16:11.897Z,23.37
2018-05-17T21:18:40.489Z,28.07
2018-05-17T21:21:11.062Z,28.07
2018-05-17T21:23:38.573Z,28.63
2018-05-17T21:26:06.786Z,25.23
2018-05-17T21:28:34.335Z,28.13
2018-05-17T21:31:01.963Z,24.87
2018-05-17T21:33:29.475Z,31.63
2018-05-17T21:35:57.005Z,22.87
2018-05-17T21:38:24.526Z,22.17
2018-05-17T21:40:52.806Z,31.20
2018-05-17T21:43:21.079Z,28.00
2018-05-17T21:45:49.354Z,21.67
2018-05-17T21:48:17.634Z,28.27
2018-05-17T21:50:45.909Z,22.90
2018-05-17T21:53:14.189Z,27.27
2018-05-17T21:55:42.469Z,27.37
2018-05-17T21:58:10.746Z,26.40
2018-05-17T22:00:39.022Z,28.80
2018-05-17T22:03:07.311Z,26.30
2018-05-17T22:05:35.586Z,22.27
2018-05-17T22:08:03.853Z,27.50
2018-05-17T22:10:32.135Z,22.17
2018-05-17T22:15:53.699Z,27.33
2018-05-17T22:21:20.377Z,26.73
2018-05-17T22:23:47.891Z,23.70
2018-05-17T22:26:16.162Z,27.03
2018-05-17T22:28:44.436Z,25.13
2018-05-17T22:31:12.716Z,34.97
2018-05-17T22:33:40.988Z,29.73
2018-05-17T22:36:08.494Z,28.27
2018-05-17T22:38:35.998Z,29.40
2018-05-17T22:41:03.509Z,29.60
2018-05-17T22:43:31.018Z,26.87
2018-05-17T22:45:58.525Z,36.30
2018-05-17T22:48:26.034Z,32.07
2018-05-17T22:50:53.568Z,31.83
2018-05-17T22:53:21.067Z,26.43
2018-05-17T22:55:49.337Z,36.23
2018-05-17T22:58:36.318Z,28.37
2018-05-17T23:01:03.864Z,32.47
2018-05-17T23:03:31.369Z,34.10
2018-05-17T23:05:58.878Z,36.80
2018-05-17T23:08:26.381Z,34.60
2018-05-17T23:10:53.896Z,35.13
2018-05-17T23:13:45.058Z,39.63
2018-05-17T23:16:12.602Z,39.10
2018-05-17T23:18:40.115Z,36.47
2018-05-17T23:21:07.627Z,35.10
